sensor_id;sensor_type;location;lat;lon;timestamp;P1;durP1;ratioP1;P2;durP2;ratioP2
3967;SDS011;9221;42.646;23.380;2023-01-28T00:02:05;9.10;;;3.47;;
3967;SDS011;9221;42.646;23.380;2023-01-28T00:04:31;9.53;;;3.40;;
3967;SDS011;9221;42.646;23.380;2023-01-28T00:06:56;8.90;;;3.63;;
3967;SDS011;9221;42.646;23.380;2023-01-28T00:09:22;11.90;;;3.43;;
3967;SDS011;9221;42.646;23.380;2023-01-28T00:11:47;6.63;;;3.23;;
3967;SDS011;9221;42.646;23.380;2023-01-28T00:14:12;7.03;;;3.30;;
3967;SDS011;9221;42.646;23.380;2023-01-28T00:16:38;8.10;;;3.23;;
3967;SDS011;9221;42.646;23.380;2023-01-28T00:19:03;3.03;;;1.80;;
3967;SDS011;9221;42.646;23.380;2023-01-28T00:21:28;6.00;;;3.40;;
3967;SDS011;9221;42.646;23.380;2023-01-28T00:23:54;6.00;;;3.10;;
3967;SDS011;9221;42.646;23.380;2023-01-28T00:26:21;7.50;;;3.00;;
3967;SDS011;9221;42.646;23.380;2023-01-28T00:28:47;5.93;;;3.10;;
3967;SDS011;9221;42.646;23.380;2023-01-28T00:31:14;6.40;;;3.17;;
3967;SDS011;9221;42.646;23.380;2023-01-28T00:33:41;10.67;;;3.77;;
3967;SDS011;9221;42.646;23.380;2023-01-28T00:36:08;5.40;;;2.87;;
3967;SDS011;9221;42.646;23.380;2023-01-28T00:38:34;6.07;;;3.40;;
3967;SDS011;9221;42.646;23.380;2023-01-28T00:41:13;6.47;;;3.10;;
3967;SDS011;9221;42.646;23.380;2023-01-28T00:43:41;10.23;;;2.93;;
3967;SDS011;9221;42.646;23.380;2023-01-28T00:46:08;7.60;;;3.57;;
3967;SDS011;9221;42.646;23.380;2023-01-28T00:48:34;6.77;;;2.53;;
3967;SDS011;9221;42.646;23.380;2023-01-28T00:51:01;8.23;;;2.90;;
3967;SDS011;9221;42.646;23.380;2023-01-28T00:53:27;4.30;;;2.50;;
3967;SDS011;9221;42.646;23.380;2023-01-28T00:55:53;6.17;;;3.13;;
3967;SDS011;9221;42.646;23.380;2023-01-28T00:58:19;7.03;;;3.00;;
3967;SDS011;9221;42.646;23.380;2023-01-28T01:00:45;7.53;;;3.03;;
3967;SDS011;9221;42.646;23.380;2023-01-28T01:03:10;6.23;;;3.00;;
3967;SDS011;9221;42.646;23.380;2023-01-28T01:05:36;7.93;;;3.00;;
3967;SDS011;9221;42.646;23.380;2023-01-28T01:08:01;6.13;;;2.67;;
3967;SDS011;9221;42.646;23.380;2023-01-28T01:10:27;7.90;;;3.50;;
3967;SDS011;9221;42.646;23.380;2023-01-28T01:12:52;4.07;;;2.37;;
3967;SDS011;9221;42.646;23.380;2023-01-28T01:15:18;6.50;;;3.00;;
3967;SDS011;9221;42.646;23.380;2023-01-28T01:17:45;6.50;;;2.93;;
3967;SDS011;9221;42.646;23.380;2023-01-28T01:20:14;8.47;;;3.00;;
3967;SDS011;9221;42.646;23.380;2023-01-28T01:22:44;6.53;;;2.60;;
3967;SDS011;9221;42.646;23.380;2023-01-28T01:25:10;6.07;;;2.50;;
3967;SDS011;9221;42.646;23.380;2023-01-28T01:27:38;7.50;;;3.10;;
3967;SDS011;9221;42.646;23.380;2023-01-28T01:30:03;5.10;;;2.77;;
3967;SDS011;9221;42.646;23.380;2023-01-28T01:32:30;6.90;;;3.13;;
3967;SDS011;9221;42.646;23.380;2023-01-28T01:34:56;5.97;;;3.07;;
3967;SDS011;9221;42.646;23.380;2023-01-28T01:37:22;6.30;;;3.23;;
3967;SDS011;9221;42.646;23.380;2023-01-28T01:39:48;7.17;;;3.20;;
3967;SDS011;9221;42.646;23.380;2023-01-28T01:42:13;7.90;;;2.90;;
3967;SDS011;9221;42.646;23.380;2023-01-28T01:44:51;7.97;;;3.80;;
3967;SDS011;9221;42.646;23.380;2023-01-28T01:47:29;4.80;;;2.60;;
3967;SDS011;9221;42.646;23.380;2023-01-28T01:52:51;9.90;;;3.60;;
3967;SDS011;9221;42.646;23.380;2023-01-28T01:55:22;9.63;;;3.47;;
3967;SDS011;9221;42.646;23.380;2023-01-28T01:57:52;6.83;;;2.87;;
3967;SDS011;9221;42.646;23.380;2023-01-28T02:00:20;9.57;;;4.20;;
3967;SDS011;9221;42.646;23.380;2023-01-28T02:02:46;9.10;;;3.80;;
3967;SDS011;9221;42.646;23.380;2023-01-28T02:05:15;5.67;;;3.20;;
3967;SDS011;9221;42.646;23.380;2023-01-28T02:07:43;7.37;;;2.73;;
3967;SDS011;9221;42.646;23.380;2023-01-28T02:10:10;6.53;;;2.77;;
3967;SDS011;9221;42.646;23.380;2023-01-28T02:12:38;11.83;;;3.30;;
3967;SDS011;9221;42.646;23.380;2023-01-28T02:15:10;8.63;;;3.57;;
3967;SDS011;9221;42.646;23.380;2023-01-28T02:17:40;7.07;;;4.00;;
3967;SDS011;9221;42.646;23.380;2023-01-28T02:20:13;9.47;;;3.90;;
3967;SDS011;9221;42.646;23.380;2023-01-28T02:22:54;7.77;;;3.60;;
3967;SDS011;9221;42.646;23.380;2023-01-28T02:40:07;11.70;;;3.47;;
3967;SDS011;9221;42.646;23.380;2023-01-28T02:42:20;4.63;;;3.53;;
3967;SDS011;9221;42.646;23.380;2023-01-28T02:44:58;7.60;;;3.03;;
3967;SDS011;9221;42.646;23.380;2023-01-28T02:47:23;7.90;;;2.77;;
3967;SDS011;9221;42.646;23.380;2023-01-28T02:50:08;8.67;;;4.30;;
3967;SDS011;9221;42.646;23.380;2023-01-28T02:53:00;7.10;;;2.80;;
3967;SDS011;9221;42.646;23.380;2023-01-28T02:59:28;11.33;;;3.23;;
3967;SDS011;9221;42.646;23.380;2023-01-28T03:07:31;7.70;;;3.03;;
3967;SDS011;9221;42.646;23.380;2023-01-28T03:10:02;4.83;;;3.03;;
3967;SDS011;9221;42.646;23.380;2023-01-28T03:12:31;8.90;;;3.73;;
3967;SDS011;9221;42.646;23.380;2023-01-28T03:15:18;5.50;;;2.63;;
3967;SDS011;9221;42.646;23.380;2023-01-28T03:18:10;10.27;;;3.73;;
3967;SDS011;9221;42.646;23.380;2023-01-28T03:21:03;7.63;;;3.60;;
3967;SDS011;9221;42.646;23.380;2023-01-28T03:23:58;11.43;;;3.30;;
3967;SDS011;9221;42.646;23.380;2023-01-28T03:27:09;6.30;;;3.13;;
3967;SDS011;9221;42.646;23.380;2023-01-28T03:29:56;10.43;;;3.47;;
3967;SDS011;9221;42.646;23.380;2023-01-28T03:32:43;9.13;;;2.90;;
3967;SDS011;9221;42.646;23.380;2023-01-28T03:35:28;7.23;;;2.97;;
3967;SDS011;9221;42.646;23.380;2023-01-28T03:38:16;8.10;;;3.37;;
3967;SDS011;9221;42.646;23.380;2023-01-28T03:40:57;7.00;;;2.70;;
3967;SDS011;9221;42.646;23.380;2023-01-28T03:43:27;11.03;;;3.87;;
3967;SDS011;9221;42.646;23.380;2023-01-28T03:45:53;6.90;;;3.07;;
3967;SDS011;9221;42.646;23.380;2023-01-28T03:48:20;6.63;;;2.83;;
3967;SDS011;9221;42.646;23.380;2023-01-28T03:50:47;5.40;;;2.33;;
3967;SDS011;9221;42.646;23.380;2023-01-28T03:53:13;5.83;;;3.00;;
3967;SDS011;9221;42.646;23.380;2023-01-28T03:55:40;8.90;;;3.53;;
3967;SDS011;9221;42.646;23.380;2023-01-28T03:58:06;10.90;;;3.60;;
3967;SDS011;9221;42.646;23.380;2023-01-28T04:00:32;7.87;;;3.10;;
3967;SDS011;9221;42.646;23.380;2023-01-28T04:03:03;9.33;;;3.27;;
3967;SDS011;9221;42.646;23.380;2023-01-28T04:05:41;6.07;;;3.53;;
3967;SDS011;9221;42.646;23.380;2023-01-28T04:08:26;5.33;;;3.60;;
3967;SDS011;9221;42.646;23.380;2023-01-28T04:10:52;6.30;;;2.73;;
3967;SDS011;9221;42.646;23.380;2023-01-28T04:13:17;10.10;;;3.50;;
3967;SDS011;9221;42.646;23.380;2023-01-28T04:15:43;11.00;;;3.73;;
3967;SDS011;9221;42.646;23.380;2023-01-28T04:18:09;9.20;;;3.03;;
3967;SDS011;9221;42.646;23.380;2023-01-28T04:20:34;6.27;;;3.07;;
3967;SDS011;9221;42.646;23.380;2023-01-28T04:23:00;8.70;;;3.43;;
3967;SDS011;9221;42.646;23.380;2023-01-28T04:25:26;8.03;;;3.47;;
3967;SDS011;9221;42.646;23.380;2023-01-28T04:27:51;6.50;;;3.37;;
3967;SDS011;9221;42.646;23.380;2023-01-28T04:30:17;5.00;;;2.43;;
3967;SDS011;9221;42.646;23.380;2023-01-28T04:32:43;6.97;;;3.07;;
3967;SDS011;9221;42.646;23.380;2023-01-28T04:35:10;6.83;;;3.43;;
3967;SDS011;9221;42.646;23.380;2023-01-28T04:37:35;4.60;;;2.57;;
3967;SDS011;9221;42.646;23.380;2023-01-28T04:40:01;10.13;;;3.27;;
3967;SDS011;9221;42.646;23.380;2023-01-28T04:42:26;6.97;;;3.00;;
3967;SDS011;9221;42.646;23.380;2023-01-28T04:44:51;5.03;;;2.57;;
3967;SDS011;9221;42.646;23.380;2023-01-28T04:47:17;9.10;;;3.20;;
3967;SDS011;9221;42.646;23.380;2023-01-28T04:49:44;6.90;;;2.97;;
3967;SDS011;9221;42.646;23.380;2023-01-28T04:52:09;7.40;;;3.53;;
3967;SDS011;9221;42.646;23.380;2023-01-28T04:54:35;8.63;;;3.80;;
3967;SDS011;9221;42.646;23.380;2023-01-28T04:57:00;7.00;;;3.00;;
3967;SDS011;9221;42.646;23.380;2023-01-28T04:59:26;5.73;;;2.43;;
3967;SDS011;9221;42.646;23.380;2023-01-28T05:01:51;4.90;;;2.27;;
3967;SDS011;9221;42.646;23.380;2023-01-28T05:04:16;9.10;;;3.30;;
3967;SDS011;9221;42.646;23.380;2023-01-28T05:06:42;6.37;;;3.20;;
3967;SDS011;9221;42.646;23.380;2023-01-28T05:09:07;7.67;;;3.40;;
3967;SDS011;9221;42.646;23.380;2023-01-28T05:11:33;6.60;;;3.10;;
3967;SDS011;9221;42.646;23.380;2023-01-28T05:13:58;9.20;;;3.90;;
3967;SDS011;9221;42.646;23.380;2023-01-28T05:16:24;6.57;;;2.60;;
3967;SDS011;9221;42.646;23.380;2023-01-28T05:18:49;8.03;;;3.20;;
3967;SDS011;9221;42.646;23.380;2023-01-28T05:21:15;7.47;;;3.13;;
3967;SDS011;9221;42.646;23.380;2023-01-28T05:23:42;10.50;;;3.40;;
3967;SDS011;9221;42.646;23.380;2023-01-28T05:26:08;10.40;;;4.17;;
3967;SDS011;9221;42.646;23.380;2023-01-28T05:28:33;7.27;;;2.57;;
3967;SDS011;9221;42.646;23.380;2023-01-28T05:31:02;6.53;;;3.03;;
3967;SDS011;9221;42.646;23.380;2023-01-28T05:33:29;15.30;;;3.50;;
3967;SDS011;9221;42.646;23.380;2023-01-28T05:35:54;6.93;;;3.10;;
3967;SDS011;9221;42.646;23.380;2023-01-28T05:38:20;7.90;;;3.00;;
3967;SDS011;9221;42.646;23.380;2023-01-28T05:40:45;8.43;;;3.10;;
3967;SDS011;9221;42.646;23.380;2023-01-28T05:43:11;8.37;;;2.93;;
3967;SDS011;9221;42.646;23.380;2023-01-28T05:45:37;7.63;;;3.40;;
3967;SDS011;9221;42.646;23.380;2023-01-28T05:48:03;10.63;;;3.10;;
3967;SDS011;9221;42.646;23.380;2023-01-28T05:50:28;5.73;;;3.17;;
3967;SDS011;9221;42.646;23.380;2023-01-28T05:52:54;7.80;;;3.47;;
3967;SDS011;9221;42.646;23.380;2023-01-28T05:55:19;13.53;;;3.40;;
3967;SDS011;9221;42.646;23.380;2023-01-28T05:57:44;8.80;;;3.33;;
3967;SDS011;9221;42.646;23.380;2023-01-28T06:00:10;10.80;;;3.70;;
3967;SDS011;9221;42.646;23.380;2023-01-28T06:02:36;12.30;;;4.20;;
3967;SDS011;9221;42.646;23.380;2023-01-28T06:05:01;5.90;;;3.00;;
3967;SDS011;9221;42.646;23.380;2023-01-28T06:07:27;7.67;;;3.30;;
3967;SDS011;9221;42.646;23.380;2023-01-28T06:09:52;8.10;;;4.00;;
3967;SDS011;9221;42.646;23.380;2023-01-28T06:12:18;8.93;;;3.60;;
3967;SDS011;9221;42.646;23.380;2023-01-28T06:14:43;9.70;;;3.97;;
3967;SDS011;9221;42.646;23.380;2023-01-28T06:17:09;6.83;;;2.77;;
3967;SDS011;9221;42.646;23.380;2023-01-28T06:19:34;7.20;;;3.00;;
3967;SDS011;9221;42.646;23.380;2023-01-28T06:22:00;11.23;;;3.73;;
3967;SDS011;9221;42.646;23.380;2023-01-28T06:24:25;7.13;;;3.40;;
3967;SDS011;9221;42.646;23.380;2023-01-28T06:26:50;9.77;;;3.80;;
3967;SDS011;9221;42.646;23.380;2023-01-28T06:29:16;11.43;;;3.47;;
3967;SDS011;9221;42.646;23.380;2023-01-28T06:31:41;9.90;;;4.00;;
3967;SDS011;9221;42.646;23.380;2023-01-28T06:34:07;8.67;;;4.00;;
3967;SDS011;9221;42.646;23.380;2023-01-28T06:36:34;10.00;;;3.90;;
3967;SDS011;9221;42.646;23.380;2023-01-28T06:39:01;7.47;;;3.40;;
3967;SDS011;9221;42.646;23.380;2023-01-28T06:41:27;7.07;;;2.73;;
3967;SDS011;9221;42.646;23.380;2023-01-28T06:43:53;6.67;;;3.50;;
3967;SDS011;9221;42.646;23.380;2023-01-28T06:46:18;10.73;;;3.53;;
3967;SDS011;9221;42.646;23.380;2023-01-28T06:48:43;7.37;;;3.37;;
3967;SDS011;9221;42.646;23.380;2023-01-28T06:51:09;7.80;;;3.47;;
3967;SDS011;9221;42.646;23.380;2023-01-28T06:53:34;10.03;;;3.50;;
3967;SDS011;9221;42.646;23.380;2023-01-28T06:55:59;5.10;;;2.93;;
3967;SDS011;9221;42.646;23.380;2023-01-28T06:58:25;6.57;;;3.37;;
3967;SDS011;9221;42.646;23.380;2023-01-28T07:00:51;9.63;;;3.47;;
3967;SDS011;9221;42.646;23.380;2023-01-28T07:03:17;8.37;;;3.17;;
3967;SDS011;9221;42.646;23.380;2023-01-28T07:05:43;10.13;;;3.90;;
3967;SDS011;9221;42.646;23.380;2023-01-28T07:08:08;11.13;;;4.10;;
3967;SDS011;9221;42.646;23.380;2023-01-28T07:10:33;14.93;;;4.23;;
3967;SDS011;9221;42.646;23.380;2023-01-28T07:12:59;9.37;;;3.60;;
3967;SDS011;9221;42.646;23.380;2023-01-28T07:15:24;8.00;;;3.23;;
3967;SDS011;9221;42.646;23.380;2023-01-28T07:17:50;10.30;;;4.03;;
3967;SDS011;9221;42.646;23.380;2023-01-28T07:20:15;5.50;;;2.90;;
3967;SDS011;9221;42.646;23.380;2023-01-28T07:22:41;11.73;;;4.47;;
3967;SDS011;9221;42.646;23.380;2023-01-28T07:25:08;9.83;;;4.50;;
3967;SDS011;9221;42.646;23.380;2023-01-28T07:27:35;13.60;;;4.37;;
3967;SDS011;9221;42.646;23.380;2023-01-28T07:30:00;10.27;;;4.10;;
3967;SDS011;9221;42.646;23.380;2023-01-28T07:32:26;10.53;;;3.83;;
3967;SDS011;9221;42.646;23.380;2023-01-28T07:34:51;18.50;;;5.50;;
3967;SDS011;9221;42.646;23.380;2023-01-28T07:37:17;12.80;;;4.70;;
3967;SDS011;9221;42.646;23.380;2023-01-28T07:39:43;16.50;;;4.50;;
3967;SDS011;9221;42.646;23.380;2023-01-28T07:42:08;10.63;;;4.03;;
3967;SDS011;9221;42.646;23.380;2023-01-28T07:44:34;11.53;;;4.07;;
3967;SDS011;9221;42.646;23.380;2023-01-28T07:47:01;11.30;;;4.13;;
3967;SDS011;9221;42.646;23.380;2023-01-28T07:49:26;6.57;;;3.30;;
3967;SDS011;9221;42.646;23.380;2023-01-28T07:51:52;10.43;;;4.40;;
3967;SDS011;9221;42.646;23.380;2023-01-28T07:54:17;14.27;;;4.60;;
3967;SDS011;9221;42.646;23.380;2023-01-28T07:56:43;16.30;;;4.90;;
3967;SDS011;9221;42.646;23.380;2023-01-28T07:59:08;9.50;;;4.20;;
3967;SDS011;9221;42.646;23.380;2023-01-28T08:01:33;13.40;;;5.23;;
3967;SDS011;9221;42.646;23.380;2023-01-28T08:03:59;11.53;;;4.90;;
3967;SDS011;9221;42.646;23.380;2023-01-28T08:06:24;14.97;;;5.10;;
3967;SDS011;9221;42.646;23.380;2023-01-28T08:08:52;11.50;;;5.60;;
3967;SDS011;9221;42.646;23.380;2023-01-28T08:11:17;12.83;;;4.80;;
3967;SDS011;9221;42.646;23.380;2023-01-28T08:13:42;12.83;;;4.07;;
3967;SDS011;9221;42.646;23.380;2023-01-28T08:16:08;10.20;;;4.70;;
3967;SDS011;9221;42.646;23.380;2023-01-28T08:18:33;14.70;;;4.97;;
3967;SDS011;9221;42.646;23.380;2023-01-28T08:20:58;9.23;;;4.07;;
3967;SDS011;9221;42.646;23.380;2023-01-28T08:23:24;15.03;;;4.30;;
3967;SDS011;9221;42.646;23.380;2023-01-28T08:25:51;7.93;;;4.00;;
3967;SDS011;9221;42.646;23.380;2023-01-28T08:28:17;12.93;;;4.27;;
3967;SDS011;9221;42.646;23.380;2023-01-28T08:30:43;13.27;;;4.30;;
3967;SDS011;9221;42.646;23.380;2023-01-28T08:33:09;13.43;;;4.77;;
3967;SDS011;9221;42.646;23.380;2023-01-28T08:35:36;11.07;;;4.10;;
3967;SDS011;9221;42.646;23.380;2023-01-28T08:38:02;14.77;;;5.40;;
3967;SDS011;9221;42.646;23.380;2023-01-28T08:40:30;13.07;;;5.27;;
3967;SDS011;9221;42.646;23.380;2023-01-28T08:42:56;13.90;;;4.90;;
3967;SDS011;9221;42.646;23.380;2023-01-28T08:45:22;10.47;;;4.10;;
3967;SDS011;9221;42.646;23.380;2023-01-28T08:47:56;6.87;;;3.63;;
3967;SDS011;9221;42.646;23.380;2023-01-28T08:50:24;7.70;;;3.67;;
3967;SDS011;9221;42.646;23.380;2023-01-28T08:52:55;12.33;;;4.50;;
3967;SDS011;9221;42.646;23.380;2023-01-28T08:55:22;12.13;;;4.60;;
3967;SDS011;9221;42.646;23.380;2023-01-28T08:57:49;6.63;;;3.53;;
3967;SDS011;9221;42.646;23.380;2023-01-28T09:00:14;11.03;;;4.40;;
3967;SDS011;9221;42.646;23.380;2023-01-28T09:02:40;15.63;;;4.37;;
3967;SDS011;9221;42.646;23.380;2023-01-28T09:05:05;10.50;;;4.20;;
3967;SDS011;9221;42.646;23.380;2023-01-28T09:07:31;5.37;;;2.50;;
3967;SDS011;9221;42.646;23.380;2023-01-28T09:09:58;7.70;;;4.10;;
3967;SDS011;9221;42.646;23.380;2023-01-28T09:12:23;11.00;;;4.20;;
3967;SDS011;9221;42.646;23.380;2023-01-28T09:14:49;7.07;;;3.30;;
3967;SDS011;9221;42.646;23.380;2023-01-28T09:17:16;8.90;;;4.10;;
3967;SDS011;9221;42.646;23.380;2023-01-28T09:19:41;10.30;;;4.73;;
3967;SDS011;9221;42.646;23.380;2023-01-28T09:22:06;10.20;;;3.80;;
3967;SDS011;9221;42.646;23.380;2023-01-28T09:24:32;11.10;;;4.23;;
3967;SDS011;9221;42.646;23.380;2023-01-28T09:26:57;8.90;;;3.67;;
3967;SDS011;9221;42.646;23.380;2023-01-28T09:29:22;10.17;;;3.90;;
3967;SDS011;9221;42.646;23.380;2023-01-28T09:31:48;14.90;;;4.67;;
3967;SDS011;9221;42.646;23.380;2023-01-28T09:34:13;13.40;;;4.60;;
3967;SDS011;9221;42.646;23.380;2023-01-28T09:36:39;8.03;;;4.10;;
3967;SDS011;9221;42.646;23.380;2023-01-28T09:39:04;12.10;;;4.43;;
3967;SDS011;9221;42.646;23.380;2023-01-28T09:47:39;10.80;;;4.27;;
3967;SDS011;9221;42.646;23.380;2023-01-28T09:50:25;13.43;;;4.63;;
3967;SDS011;9221;42.646;23.380;2023-01-28T09:52:58;12.47;;;5.07;;
3967;SDS011;9221;42.646;23.380;2023-01-28T09:55:30;12.67;;;4.40;;
3967;SDS011;9221;42.646;23.380;2023-01-28T09:57:59;10.33;;;4.10;;
3967;SDS011;9221;42.646;23.380;2023-01-28T10:00:33;14.63;;;4.40;;
3967;SDS011;9221;42.646;23.380;2023-01-28T10:03:21;11.53;;;4.67;;
3967;SDS011;9221;42.646;23.380;2023-01-28T10:05:54;12.07;;;5.10;;
3967;SDS011;9221;42.646;23.380;2023-01-28T10:08:36;16.03;;;4.70;;
3967;SDS011;9221;42.646;23.380;2023-01-28T10:11:27;16.03;;;4.50;;
3967;SDS011;9221;42.646;23.380;2023-01-28T10:14:00;9.30;;;4.30;;
3967;SDS011;9221;42.646;23.380;2023-01-28T10:16:34;13.00;;;4.27;;
3967;SDS011;9221;42.646;23.380;2023-01-28T10:19:06;12.73;;;5.00;;
3967;SDS011;9221;42.646;23.380;2023-01-28T10:22:11;15.93;;;5.37;;
3967;SDS011;9221;42.646;23.380;2023-01-28T10:24:39;7.90;;;3.40;;
3967;SDS011;9221;42.646;23.380;2023-01-28T10:27:12;18.17;;;5.50;;
3967;SDS011;9221;42.646;23.380;2023-01-28T10:29:41;11.97;;;4.30;;
3967;SDS011;9221;42.646;23.380;2023-01-28T10:34:53;11.83;;;4.90;;
3967;SDS011;9221;42.646;23.380;2023-01-28T10:37:20;10.47;;;4.60;;
3967;SDS011;9221;42.646;23.380;2023-01-28T10:39:46;12.07;;;4.40;;
3967;SDS011;9221;42.646;23.380;2023-01-28T10:45:01;13.37;;;4.93;;
3967;SDS011;9221;42.646;23.380;2023-01-28T10:47:37;12.60;;;4.90;;
3967;SDS011;9221;42.646;23.380;2023-01-28T10:50:14;11.67;;;3.97;;
3967;SDS011;9221;42.646;23.380;2023-01-28T10:52:56;8.30;;;3.77;;
3967;SDS011;9221;42.646;23.380;2023-01-28T10:55:28;16.70;;;4.20;;
3967;SDS011;9221;42.646;23.380;2023-01-28T10:57:55;10.77;;;3.90;;
3967;SDS011;9221;42.646;23.380;2023-01-28T11:00:23;14.37;;;4.93;;
3967;SDS011;9221;42.646;23.380;2023-01-28T11:02:50;11.50;;;4.07;;
3967;SDS011;9221;42.646;23.380;2023-01-28T11:05:18;16.23;;;5.17;;
3967;SDS011;9221;42.646;23.380;2023-01-28T11:07:47;12.03;;;4.20;;
3967;SDS011;9221;42.646;23.380;2023-01-28T11:10:25;14.40;;;5.23;;
3967;SDS011;9221;42.646;23.380;2023-01-28T11:12:54;12.30;;;4.47;;
3967;SDS011;9221;42.646;23.380;2023-01-28T11:15:23;10.47;;;4.37;;
3967;SDS011;9221;42.646;23.380;2023-01-28T11:17:52;9.80;;;4.00;;
3967;SDS011;9221;42.646;23.380;2023-01-28T11:23:18;12.53;;;4.27;;
3967;SDS011;9221;42.646;23.380;2023-01-28T11:25:48;15.63;;;4.53;;
3967;SDS011;9221;42.646;23.380;2023-01-28T11:28:23;7.70;;;3.90;;
3967;SDS011;9221;42.646;23.380;2023-01-28T11:30:51;11.87;;;4.93;;
3967;SDS011;9221;42.646;23.380;2023-01-28T11:33:20;13.33;;;4.60;;
3967;SDS011;9221;42.646;23.380;2023-01-28T11:35:54;13.40;;;4.87;;
3967;SDS011;9221;42.646;23.380;2023-01-28T11:38:22;12.03;;;4.47;;
3967;SDS011;9221;42.646;23.380;2023-01-28T11:40:53;9.77;;;4.30;;
3967;SDS011;9221;42.646;23.380;2023-01-28T11:43:20;13.90;;;4.93;;
3967;SDS011;9221;42.646;23.380;2023-01-28T12:10:19;14.27;;;4.27;;
3967;SDS011;9221;42.646;23.380;2023-01-28T12:12:56;11.50;;;4.50;;
3967;SDS011;9221;42.646;23.380;2023-01-28T12:18:25;11.63;;;4.30;;
3967;SDS011;9221;42.646;23.380;2023-01-28T12:29:40;10.83;;;5.07;;
3967;SDS011;9221;42.646;23.380;2023-01-28T12:38:28;9.80;;;4.10;;
3967;SDS011;9221;42.646;23.380;2023-01-28T12:49:15;11.73;;;5.10;;
3967;SDS011;9221;42.646;23.380;2023-01-28T12:57:41;12.10;;;3.80;;
3967;SDS011;9221;42.646;23.380;2023-01-28T13:00:18;11.57;;;4.60;;
3967;SDS011;9221;42.646;23.380;2023-01-28T13:02:52;17.00;;;5.13;;
3967;SDS011;9221;42.646;23.380;2023-01-28T13:05:21;10.80;;;3.90;;
3967;SDS011;9221;42.646;23.380;2023-01-28T13:07:59;13.07;;;4.80;;
3967;SDS011;9221;42.646;23.380;2023-01-28T13:10:37;15.57;;;5.23;;
3967;SDS011;9221;42.646;23.380;2023-01-28T13:13:06;19.17;;;5.60;;
3967;SDS011;9221;42.646;23.380;2023-01-28T13:15:35;13.87;;;4.83;;
3967;SDS011;9221;42.646;23.380;2023-01-28T13:18:04;14.80;;;4.70;;
3967;SDS011;9221;42.646;23.380;2023-01-28T13:20:35;12.70;;;5.40;;
3967;SDS011;9221;42.646;23.380;2023-01-28T13:23:01;16.73;;;5.80;;
3967;SDS011;9221;42.646;23.380;2023-01-28T13:25:31;14.33;;;5.60;;
3967;SDS011;9221;42.646;23.380;2023-01-28T13:28:04;12.97;;;4.87;;
3967;SDS011;9221;42.646;23.380;2023-01-28T13:30:32;13.57;;;4.80;;
3967;SDS011;9221;42.646;23.380;2023-01-28T13:33:00;13.17;;;5.47;;
3967;SDS011;9221;42.646;23.380;2023-01-28T13:38:07;20.63;;;4.93;;
3967;SDS011;9221;42.646;23.380;2023-01-28T13:40:51;15.40;;;4.83;;
3967;SDS011;9221;42.646;23.380;2023-01-28T13:45:59;12.70;;;5.17;;
3967;SDS011;9221;42.646;23.380;2023-01-28T13:48:31;9.47;;;4.60;;
3967;SDS011;9221;42.646;23.380;2023-01-28T13:50:57;19.03;;;5.00;;
3967;SDS011;9221;42.646;23.380;2023-01-28T13:53:45;19.93;;;5.00;;
3967;SDS011;9221;42.646;23.380;2023-01-28T13:56:20;17.07;;;5.87;;
3967;SDS011;9221;42.646;23.380;2023-01-28T14:18:39;15.90;;;5.57;;
3967;SDS011;9221;42.646;23.380;2023-01-28T14:21:08;16.03;;;4.97;;
3967;SDS011;9221;42.646;23.380;2023-01-28T14:23:37;12.03;;;4.37;;
3967;SDS011;9221;42.646;23.380;2023-01-28T14:28:44;18.93;;;4.97;;
3967;SDS011;9221;42.646;23.380;2023-01-28T14:31:15;13.00;;;5.30;;
3967;SDS011;9221;42.646;23.380;2023-01-28T14:33:48;12.00;;;5.00;;
3967;SDS011;9221;42.646;23.380;2023-01-28T14:36:14;10.67;;;4.07;;
3967;SDS011;9221;42.646;23.380;2023-01-28T14:38:41;16.20;;;4.73;;
3967;SDS011;9221;42.646;23.380;2023-01-28T14:41:10;12.60;;;5.07;;
3967;SDS011;9221;42.646;23.380;2023-01-28T14:43:47;13.00;;;5.50;;
3967;SDS011;9221;42.646;23.380;2023-01-28T14:46:19;12.27;;;5.37;;
3967;SDS011;9221;42.646;23.380;2023-01-28T14:49:11;16.03;;;5.50;;
3967;SDS011;9221;42.646;23.380;2023-01-28T15:00:28;16.50;;;4.83;;
3967;SDS011;9221;42.646;23.380;2023-01-28T15:02:55;12.90;;;4.80;;
3967;SDS011;9221;42.646;23.380;2023-01-28T15:05:25;10.87;;;4.13;;
3967;SDS011;9221;42.646;23.380;2023-01-28T15:07:52;16.37;;;5.10;;
3967;SDS011;9221;42.646;23.380;2023-01-28T15:10:19;10.90;;;4.43;;
3967;SDS011;9221;42.646;23.380;2023-01-28T15:12:57;13.10;;;3.90;;
3967;SDS011;9221;42.646;23.380;2023-01-28T15:15:29;10.87;;;4.80;;
3967;SDS011;9221;42.646;23.380;2023-01-28T15:18:17;11.83;;;4.47;;
3967;SDS011;9221;42.646;23.380;2023-01-28T15:20:47;9.93;;;3.97;;
3967;SDS011;9221;42.646;23.380;2023-01-28T15:23:24;6.90;;;3.70;;
3967;SDS011;9221;42.646;23.380;2023-01-28T15:25:52;13.60;;;4.80;;
3967;SDS011;9221;42.646;23.380;2023-01-28T15:28:23;7.47;;;3.60;;
3967;SDS011;9221;42.646;23.380;2023-01-28T15:30:57;9.87;;;3.83;;
3967;SDS011;9221;42.646;23.380;2023-01-28T15:33:23;12.60;;;4.07;;
3967;SDS011;9221;42.646;23.380;2023-01-28T15:35:50;10.30;;;4.10;;
3967;SDS011;9221;42.646;23.380;2023-01-28T15:38:19;8.00;;;3.67;;
3967;SDS011;9221;42.646;23.380;2023-01-28T15:40:47;9.13;;;4.00;;
3967;SDS011;9221;42.646;23.380;2023-01-28T15:43:20;12.93;;;4.33;;
3967;SDS011;9221;42.646;23.380;2023-01-28T15:45:48;9.73;;;3.77;;
3967;SDS011;9221;42.646;23.380;2023-01-28T15:48:19;9.43;;;4.07;;
3967;SDS011;9221;42.646;23.380;2023-01-28T15:50:46;9.90;;;3.93;;
3967;SDS011;9221;42.646;23.380;2023-01-28T15:53:12;12.30;;;4.70;;
3967;SDS011;9221;42.646;23.380;2023-01-28T16:01:01;7.70;;;4.10;;
3967;SDS011;9221;42.646;23.380;2023-01-28T16:03:36;7.43;;;3.50;;
3967;SDS011;9221;42.646;23.380;2023-01-28T16:06:18;9.30;;;4.03;;
3967;SDS011;9221;42.646;23.380;2023-01-28T16:11:32;10.07;;;3.80;;
3967;SDS011;9221;42.646;23.380;2023-01-28T16:14:02;7.80;;;3.77;;
3967;SDS011;9221;42.646;23.380;2023-01-28T16:19:01;7.70;;;3.43;;
3967;SDS011;9221;42.646;23.380;2023-01-28T16:21:33;13.90;;;4.17;;
3967;SDS011;9221;42.646;23.380;2023-01-28T16:24:03;9.97;;;4.17;;
3967;SDS011;9221;42.646;23.380;2023-01-28T16:26:31;9.50;;;3.93;;
3967;SDS011;9221;42.646;23.380;2023-01-28T16:29:16;9.63;;;4.30;;
3967;SDS011;9221;42.646;23.380;2023-01-28T16:31:42;11.20;;;3.60;;
3967;SDS011;9221;42.646;23.380;2023-01-28T16:34:08;11.00;;;3.63;;
3967;SDS011;9221;42.646;23.380;2023-01-28T16:36:34;11.90;;;4.53;;
3967;SDS011;9221;42.646;23.380;2023-01-28T16:39:00;10.57;;;4.07;;
3967;SDS011;9221;42.646;23.380;2023-01-28T16:41:26;10.77;;;4.67;;
3967;SDS011;9221;42.646;23.380;2023-01-28T16:43:53;14.17;;;4.20;;
3967;SDS011;9221;42.646;23.380;2023-01-28T16:46:19;12.70;;;4.40;;
3967;SDS011;9221;42.646;23.380;2023-01-28T16:48:44;8.67;;;3.73;;
3967;SDS011;9221;42.646;23.380;2023-01-28T16:51:16;5.60;;;2.97;;
3967;SDS011;9221;42.646;23.380;2023-01-28T16:53:43;7.80;;;3.90;;
3967;SDS011;9221;42.646;23.380;2023-01-28T16:56:20;8.60;;;3.30;;
3967;SDS011;9221;42.646;23.380;2023-01-28T16:58:48;13.63;;;4.43;;
3967;SDS011;9221;42.646;23.380;2023-01-28T17:01:13;6.50;;;3.20;;
3967;SDS011;9221;42.646;23.380;2023-01-28T17:03:39;9.63;;;2.87;;
3967;SDS011;9221;42.646;23.380;2023-01-28T17:06:05;13.83;;;4.33;;
3967;SDS011;9221;42.646;23.380;2023-01-28T17:08:31;13.47;;;4.57;;
3967;SDS011;9221;42.646;23.380;2023-01-28T17:10:57;11.03;;;3.77;;
3967;SDS011;9221;42.646;23.380;2023-01-28T17:13:23;10.03;;;3.80;;
3967;SDS011;9221;42.646;23.380;2023-01-28T17:15:49;9.30;;;4.30;;
3967;SDS011;9221;42.646;23.380;2023-01-28T17:18:14;10.93;;;4.37;;
3967;SDS011;9221;42.646;23.380;2023-01-28T17:20:40;15.13;;;4.93;;
3967;SDS011;9221;42.646;23.380;2023-01-28T17:23:05;11.53;;;5.13;;
3967;SDS011;9221;42.646;23.380;2023-01-28T17:25:36;11.27;;;4.27;;
3967;SDS011;9221;42.646;23.380;2023-01-28T17:28:03;9.07;;;3.60;;
3967;SDS011;9221;42.646;23.380;2023-01-28T17:30:29;10.83;;;4.23;;
3967;SDS011;9221;42.646;23.380;2023-01-28T17:32:55;17.57;;;5.23;;